Jump to main content.


Dockets by Statute SDWA

(871 entries in this collection) Click for full-text searchSearch these

[prev] 1 2 3 4 5 6 7 8 9 [next]


09/17/2014ActiveSDWA-08-2014-0042 BEAVERHEAD COUNTY JACKSON WATER AND/OR SEWER DISTRICT
09/12/2014ActiveSDWA-08-2014-0041 TOWN OF PINEDALE
09/09/2014ActiveSDWA-02-2014-8401 United States Department of the Army
09/05/2014ActiveSDWA-08-2014-0037 CANON MARINE INC.
09/04/2014ActiveSDWA-08-2014-0036 CUSTER COUNTY ROAD & BRIDGE
09/04/2014ActiveSDWA-08-2014-0038 LT CAMPGROUNDS, LLC (DBA CUSTER/MOUNT RUSHMORE KOA)
09/03/2014ActiveSDWA-08-2014-0035 BIG COUNTRY, LLC AND JOHN TREFREN
08/19/2014ActiveSDWA-08-2014-0031 WARM SPRINGS WATER DISTRICT
08/18/2014ActiveSDWA-08-2014-0029 CITY OF SUNDANCE, WYOMING
08/07/2014ActiveSDWA-02-2014-8402 Emerald Beach Resort I Public Water System
08/07/2014ActiveSDWA-02-2014-8403 Emerald Beach Resort II Public Water System
08/07/2014ActiveSDWA-08-2014-0025 DONALD AND BETTY ROBERTS
08/07/2014ActiveSDWA-08-2014-0026 HYATTVFILLE SERVICE AND IMPROVEMENT DISTRICT
08/07/2014ActiveSDWA-08-2014-0027 PHIL JORDAN, OWNER/OPERATOR, KEYHOLE RESORT/MARINA
08/07/2014ActiveSDWA-08-2014-0028 CITY KIDS TO WILDERNESS PROJECT, INC.
07/24/2014ActiveSDWA-08-2014-0023 BITTERROOT GATEWAY MH AND RV PARK, LLC.
07/22/2014ClosedSDWA-08-2014-0022 HOBACK STORES, LLC.
07/18/2014ActiveSDWA-02-2014-8902 FDD, Inc.
07/11/2014ActiveSDWA-03-2014-0089 Dalel Daniel Kyser, SDWA, Complaint
07/07/2014ActiveSDWA-08-2014-0021 SIGMA-ALDRICH RTC, INC.
06/30/2014ActiveSDWA-03-2014-0015 David T. Mathews, SDWA. complaint
06/30/2014ActiveSDWA-03-2014-0015DS Shenandoah Utility Services, SDWA, complaint,
06/30/2014ActiveSDWA-08-2014-0018 LAMBERT COUNTY SEWER AND WATER DISTRICT
06/30/2014ActiveSDWA-08-2014-0019 JOHNSON COUNTY MOOSE LODGE #2675
06/30/2014ActiveSDWA-08-2014-0020 EVERGREEN PROPERTIES LLC. and RANDALL SPENCER
06/24/2014ClosedSDWA-04-2014-1003(b) SWO & ISM, LLC
06/19/2014ActiveSDWA-08-2014-0017 PRAIRIE MOUNTAIN UTILITY, OPERATOR, AND GROS VENTRE AND ASSINIBOINE TRIBES OF THE FORT BELKNAP INDIAN COMMUNITY, OWNER
LODGEPOLE HOUSING PUBLIC WATER SUPPLY
06/17/2014ActiveSDWA-03-2014-0087 Dale Daniel Kyser, SDWA, Complaint
06/17/2014ActiveSDWA-03-2014-0089 Dale Daniel Kyser, SDWA, Complaint
06/16/2014ActiveSDWA-08-2014-0016 LINDA AND DAVID CAPPS AND WESTON ENGINEERING, INC.
05/21/2014ActiveSDWA-08-2014-0015 BUFFALO VALLEY WATER DISTRICT
04/30/2014ActiveSDWA-08-2014-0013 HR CAMP FOUNDATION
04/30/2014ActiveSDWA-08-2014-0014 EVANS LAND AND CATTLE CO., INC.- EVANS MOBILE HOME COURT PUBLIC WATER SYSTEM
03/31/2014ActiveSDWA-08-2014-0012 TOWN OF HARTVILLE, WY
03/27/2014ActiveSDWA-08-2014-0011 TOWN OF EDGERTON
03/25/2014ActiveSDWA-08-2014-0010 BIG VALLEY AND CROSSED ARROWS IMPROVEMENT DISTRICT
03/21/2014ClosedSDWA-02-2014-8901 Village of Lloyd Harbor (Highway Garage)
03/20/2014ActiveSDWA-08-2014-0009 CAMECO RESOURCES (POWER RESOURCES/SMITH RANCH PWS)
03/13/2014ClosedSDWA-04-2014-1001(b) Logsdon Valley Oil Company, Inc.
03/13/2014ClosedSDWA-04-2014-1002(b) Greathouse Well Services, Inc.
03/07/2014ActiveSDWA-08-2014-0008 MOUNTAIN VILLAGE PARKS, INC.
DIANA and DANIEL ALEXANDER, OWNERS and/or OPERATORS
02/04/2014ClosedSDWA-04-2013-1011(b) Williams' Oil Company, Inc.
01/30/2014ActiveSDWA-08-2014-0007 HOBACK STORES
01/21/2014ActiveSDWA-08-2014-0005 LEWIS MOBILE HOME PARK
01/21/2014ActiveSDWA-08-2014-0006 MARK SPARKS, OWNER; COOPER SUBDIVISION MOBILE HOME PARK
01/17/2014ClosedSDWA-10-2014-0027 National Park Service-US Dept. of the Interior
01/17/2014ClosedSDWA-08-2014-0004 TOWN OF GRANGER
01/14/2014ClosedSDWA-04-2013-1010(b) Petroleum Development Group, LLC
01/14/2014ClosedSDWA-04-2014-1000(b) MSD Energy, Inc.
01/07/2014ActiveSDWA-08-2013-0058 MACKAY INVESTMENTS, INC.
01/06/2014ActiveSDWA-08-2014-0003 DAVID BERTRAND, OWNER - LITTLE BEAR INN PUBLIC WATER SYSTEM
12/23/2013ActiveSDWA-08-2014-0002 STATE OF WYOMING DEPARTMENT OF CORRECTIONS
12/18/2013ClosedSDWA 06-2014-1109 MR. EARL YATES
12/14/2013ActiveSDWA-08-2013-0015 WYOMING DEPARTMENT OF STATE PARKS AND CULTURAL RESOURCES
11/20/2013ClosedSDWA-04-2013-1009(b) C.S. Rhoads, Agent
11/15/2013ActiveSDWA-08-2014-0001 GREG M. BROWN - AVALON MOBILE MANOR PUBLIC WATER SYSTEM
10/24/2013ClosedSDWA-04-2013-1005(b) Douglas A. Wagner
09/30/2013ClosedSDWA-08-2013-0065 KENNINGTON SPRINGS PIPELINE, INC.
09/30/2013ActiveSDWA-08-2013-0066 GREAT SALT LAKE COUNCIL, INC. - BOY SCOUTS OF AMERICA TETON HIGH ADVENTURE BASE
09/26/2013ActiveSDWA-08-2013-0063 TOINIA AND MICHAEL JOHNSON, OWERS - CROOK COUNTY SALOON
09/26/2013ActiveSDWA-08-2013-0064 WRANGLER ESTATES, INC.
09/24/2013ActiveSDWA-02-2013-8901 Serafini Nissan-Volvo
09/24/2013ClosedSDWA-02-2013-8901 Serafini Nissan-Volvo
09/24/2013ClosedSDWA-08-2013-0062 TRIANGLE C RANCH LLC.
09/23/2013ActiveSDWA-08-2013-0061 MOUNTAIN VILLAGE PARKS, INC.
09/20/2013ClosedSDWA-10-2013-0156 Alaska Dept. of Transporation and Public Facilities - Northern Region, AK
09/20/2013ClosedSDWA-10-2013-0155 Alaska Dept. of Transportation & Public Facilities - Central Region, AK
09/20/2013ActiveSDWA-09-2013-0001 BIA Keams Canyon Public Water System
09/19/2013ActiveSDWA-08-2013-0059 CATHEDRAL HOME FOR CHILDREN
09/18/2013ActiveSDWA-08-2013-0057 YELLOWSTONE VALLEY INN AND RV, INC.
09/18/2013ActiveSDWA-08-2013-0058 MACKAY INVESTMENTS, LLC. (JACKSON HOLE CAMPGROUND PUBLIC WATER SYSTEM)
09/13/2013ClosedSDWA 06-2013-1124 GLOBAL OKLAHOMA PRODUCTION, LLC
09/11/2013ClosedSDWA-04-2013-1008(b) Coffman Oil & Real Estate, Inc.
09/09/2013ActiveSDWA-08-2013-0056 CAMP CREEK INN, LLC.
09/03/2013ClosedSDWA-04-2013-1007(b) Blackhawk Energy, LLC
09/03/2013ActiveSDWA-08-2013-0053 MIKE PAVLICA (WYO CAMPGROUND PUBLIC WATER SYSTEM)
08/27/2013ActiveSDWA-08-2013-0051 CONCEPT AUTO BODY
08/27/2013ActiveSDWA-08-2013-0052 SOUTHFORK ESTATES IMPROVEMENT & SERVICE DISTRICT
08/26/2013ClosedSDWA-08-2013-0050 UNITED PARCEL SERVICE, INC.
08/23/2013ActiveSDWA-02-2013-8902 Amco Polymers, LLC and/or Ravago Manufacturing America, LLC and Ravago Manufacturing Americas
08/19/2013ActiveSDWA-08-2013-0049 BL PROPERTIES AND MANAGEMENT LLC. - BROOKS LAKE LODGE
07/31/2013ActiveSDWA-08-2013-0048 ROXANE CRETAL and KELLY GARLAND (FLAT CREEK RV PARK)
07/30/2013ClosedSDWA-04-2013-1006(b) Newport Energy Corporation
07/30/2013ClosedSDWA-08-2013-0047 TOWN OF MANVILLE, WY
07/29/2013ClosedSDWA-08-2013-0046 FORT BELKNAP INDIAN COMMUNITY AND PRAIRIE MOUNTAIN UTILITY
07/25/2013ActiveSDWA-08-2013-0045 LINDA CAPPS, AS TRUSTEE OF THE SPRINGLER FAMILY TRUST; AND THE LEO SPRINGLER REVOCABLE TRUST
07/15/2013ActiveSDWA-08-2013-0044 B-Y RANCH ASSOCIATES, INC.
07/08/2013ActiveSDWA-08-2013-0043 FLYING X RANCH CORP.
06/28/2013ClosedSDWA-08-2013-0041 USDA FOREST SERVICE; BRIDGER-TETON NATIONAL FOREST - NEW FORK NARROWS CAMPGROUND
06/24/2013ActiveSDWA-08-2013-0037 CLAY, LLC. (CREEKSIDE LODGE)
06/24/2013ActiveSDWA-08-2013-0039 TOWN OF MANVILLE, WY
06/24/2013ClosedSDWA-08-2013-0040 ADVANTAGE RESOURCES, INC.
06/15/2013ClosedSDWA-02-2013-8407 USAF, JBMDL - Dix BIV 20
06/15/2013ClosedSDWA-02-2013-8406 USAF, JBMDL - Dix BIV 18
06/15/2013ClosedSDWA-02-2013-8405 USAF, JBMDL - Dix Ammunition Supply Point
06/15/2013ClosedSDWA-02-2013-8410 USAF, JBMDL - Dix Range HQ
06/15/2013ClosedSDWA-02-2013-8401 USAF, JBMDL - Dix Main
06/15/2013ClosedSDWA-02-2013-8409 USAF, JBMDL - Dix I/R Site
06/15/2013ClosedSDWA-02-2013-8402 USAF, JBMDL - Dix Brindle Lake
06/15/2013ActiveSDWA-02-2013-8143 U.S. Department of Intetior, National Park Service, Cinnamon Bay Campground Public Water System

(871 entries in this collection)
[prev] 1 2 3 4 5 6 7 8 9 [next]

Local Navigation




Jump to main content.